Pagrindinis puslapis
METAR-TAF:

METAR-TAF

Oro uostai :

Førde, Norvegija

platuma: 61-27N, ilguma: 005-52E, Aukštis: 150 m

Dabartinis oras

Ataskaita buvo paskelbta 5 valandos ir 0 minutes, ne 21:20 UTC
Vėjas 2 kt iš Pietryčių
Temperatūra 11°C
Drėgmė 100%
Slėgis 1020 hPa
Matomumas: 8000 m
Mažai debesys ne aukštis 1000 ft
Išsisklaidę debesys ne aukštis 1500 ft
Su prošvaistėmis ne aukštis 2000 ft
lietus

METAR: ENBL 232120Z 13002KT 8000 -RA FEW010 SCT015 BKN020 11/11 Q1020

Laikas: 04:20 (02:20 UTC)


TAF: trūkstamas

Orai ataskaitas ir orų prognozės (METAR, TAF).

turimą stotys yra geltonos ir raudonos taškus žemėlapyje.

Perkelti pele per norėdami pamatyti stoties vardą.

Tada spustelėkite, norėdami matyti oro stebėjimo ir prognozės.

Norėdami pakeisti žemėlapį: spustelėkite ant žalios mygtukų su juodo kryžiaus žemyn,; žalią mygtuką su brūkšneliu, jei norite nutolinti; arba žalių rodyklių gretimoms žemėlapius.


METAR-TAF: